Terminal Aerodrome Forecast
Issued by NWS Chicago, IL

Home | Current Version | Previous Version | Graphics & Text | Print | Product List | Glossary On
Versions: 1 2 3 4 5 6 7 8 9 10 11 12 13 14 15 16 17 18 19 20 21 22 23 24 25
121
FTUS43 KLOT 131743
TAFRFD
TAF
KRFD 131743Z 1318/1418 31008KT P6SM SKC
     FM132300 VRB03KT P6SM SKC
     FM141000 16005KT P6SM OVC120
     FM141200 15013G20KT P6SM BKN035 OVC060
     FM141430 15014G18KT 2SM -SN OVC012
      TEMPO 1416/1418 1SM -SN BR OVC010=

USA.gov is the U.S. government's official web portal to all federal, state and local government web resources and services.